sensor_id;sensor_type;location;lat;lon;timestamp;pressure;altitude;pressure_sealevel;temperature;humidity
72210;BME280;60113;48.762;12.302;2024-03-02T00:01:51;96248.50;;;3.20;100.00
72210;BME280;60113;48.762;12.302;2024-03-02T00:04:16;96256.28;;;3.20;100.00
72210;BME280;60113;48.762;12.302;2024-03-02T00:06:42;96253.06;;;3.16;100.00
72210;BME280;60113;48.762;12.302;2024-03-02T00:09:09;96248.69;;;3.17;100.00
72210;BME280;60113;48.762;12.302;2024-03-02T00:11:37;96247.88;;;3.16;100.00
72210;BME280;60113;48.762;12.302;2024-03-02T00:14:03;96247.03;;;3.16;100.00
72210;BME280;60113;48.762;12.302;2024-03-02T00:16:32;96236.72;;;3.14;100.00
72210;BME280;60113;48.762;12.302;2024-03-02T00:19:05;96242.78;;;3.15;100.00
72210;BME280;60113;48.762;12.302;2024-03-02T00:21:32;96247.97;;;3.15;100.00
72210;BME280;60113;48.762;12.302;2024-03-02T00:23:58;96247.97;;;3.15;100.00
72210;BME280;60113;48.762;12.302;2024-03-02T00:26:25;96247.88;;;3.16;100.00
72210;BME280;60113;48.762;12.302;2024-03-02T00:28:54;96245.19;;;3.18;100.00
72210;BME280;60113;48.762;12.302;2024-03-02T00:31:22;96241.63;;;3.19;100.00
72210;BME280;60113;48.762;12.302;2024-03-02T00:33:48;96240.69;;;3.20;100.00
72210;BME280;60113;48.762;12.302;2024-03-02T00:36:22;96245.69;;;3.23;100.00
72210;BME280;60113;48.762;12.302;2024-03-02T00:38:51;96239.59;;;3.24;100.00
72210;BME280;60113;48.762;12.302;2024-03-02T00:41:30;96241.16;;;3.27;100.00
72210;BME280;60113;48.762;12.302;2024-03-02T00:44:06;96227.25;;;3.28;100.00
72210;BME280;60113;48.762;12.302;2024-03-02T00:46:37;96227.16;;;3.29;100.00
72210;BME280;60113;48.762;12.302;2024-03-02T00:49:05;96236.53;;;3.32;100.00
72210;BME280;60113;48.762;12.302;2024-03-02T00:51:33;96230.41;;;3.33;100.00
72210;BME280;60113;48.762;12.302;2024-03-02T00:54:01;96231.22;;;3.33;100.00
72210;BME280;60113;48.762;12.302;2024-03-02T00:56:29;96230.19;;;3.36;100.00
72210;BME280;60113;48.762;12.302;2024-03-02T00:58:55;96226.75;;;3.35;100.00
72210;BME280;60113;48.762;12.302;2024-03-02T01:01:21;96229.25;;;3.37;100.00
72210;BME280;60113;48.762;12.302;2024-03-02T01:03:47;96227.50;;;3.37;100.00
72210;BME280;60113;48.762;12.302;2024-03-02T01:06:14;96228.22;;;3.40;100.00
72210;BME280;60113;48.762;12.302;2024-03-02T01:08:41;96220.31;;;3.41;100.00
72210;BME280;60113;48.762;12.302;2024-03-02T01:11:06;96216.81;;;3.42;100.00
72210;BME280;60113;48.762;12.302;2024-03-02T01:13:32;96221.06;;;3.43;100.00
72210;BME280;60113;48.762;12.302;2024-03-02T01:15:57;96217.53;;;3.44;100.00
72210;BME280;60113;48.762;12.302;2024-03-02T01:18:23;96218.38;;;3.45;100.00
72210;BME280;60113;48.762;12.302;2024-03-02T01:20:49;96213.19;;;3.45;100.00
72210;BME280;60113;48.762;12.302;2024-03-02T01:23:18;96208.84;;;3.45;100.00
72210;BME280;60113;48.762;12.302;2024-03-02T01:25:45;96214.84;;;3.46;100.00
72210;BME280;60113;48.762;12.302;2024-03-02T01:28:11;96213.09;;;3.46;100.00
72210;BME280;60113;48.762;12.302;2024-03-02T01:30:36;96208.00;;;3.45;100.00
72210;BME280;60113;48.762;12.302;2024-03-02T01:33:02;96205.50;;;3.43;100.00
72210;BME280;60113;48.762;12.302;2024-03-02T01:35:27;96209.84;;;3.43;100.00
72210;BME280;60113;48.762;12.302;2024-03-02T01:37:53;96209.84;;;3.43;100.00
72210;BME280;60113;48.762;12.302;2024-03-02T01:40:19;96207.25;;;3.43;100.00
72210;BME280;60113;48.762;12.302;2024-03-02T01:42:45;96209.84;;;3.43;100.00
72210;BME280;60113;48.762;12.302;2024-03-02T01:45:11;96206.44;;;3.42;100.00
72210;BME280;60113;48.762;12.302;2024-03-02T01:47:36;96215.03;;;3.43;100.00
72210;BME280;60113;48.762;12.302;2024-03-02T01:50:02;96216.81;;;3.42;100.00
72210;BME280;60113;48.762;12.302;2024-03-02T01:52:27;96213.47;;;3.40;100.00
72210;BME280;60113;48.762;12.302;2024-03-02T01:54:53;96208.19;;;3.42;100.00
72210;BME280;60113;48.762;12.302;2024-03-02T01:57:19;96213.28;;;3.43;100.00
72210;BME280;60113;48.762;12.302;2024-03-02T01:59:46;96205.50;;;3.43;100.00
72210;BME280;60113;48.762;12.302;2024-03-02T02:02:13;96210.78;;;3.42;100.00
72210;BME280;60113;48.762;12.302;2024-03-02T02:04:39;96199.56;;;3.41;100.00
72210;BME280;60113;48.762;12.302;2024-03-02T02:07:05;96207.44;;;3.40;100.00
72210;BME280;60113;48.762;12.302;2024-03-02T02:09:32;96210.97;;;3.38;100.00
72210;BME280;60113;48.762;12.302;2024-03-02T02:11:57;96201.53;;;3.37;100.00
72210;BME280;60113;48.762;12.302;2024-03-02T02:14:23;96208.47;;;3.37;100.00
72210;BME280;60113;48.762;12.302;2024-03-02T02:16:48;96202.44;;;3.36;100.00
72210;BME280;60113;48.762;12.302;2024-03-02T02:19:14;96205.97;;;3.35;100.00
72210;BME280;60113;48.762;12.302;2024-03-02T02:21:42;96197.47;;;3.33;100.00
72210;BME280;60113;48.762;12.302;2024-03-02T02:24:08;96195.88;;;3.31;100.00
72210;BME280;60113;48.762;12.302;2024-03-02T02:26:33;96195.06;;;3.30;100.00
72210;BME280;60113;48.762;12.302;2024-03-02T02:28:59;96199.44;;;3.30;100.00
72210;BME280;60113;48.762;12.302;2024-03-02T02:31:24;96189.13;;;3.28;100.00
72210;BME280;60113;48.762;12.302;2024-03-02T02:33:49;96195.28;;;3.27;100.00
72210;BME280;60113;48.762;12.302;2024-03-02T02:36:15;96197.03;;;3.27;100.00
72210;BME280;60113;48.762;12.302;2024-03-02T02:38:44;96192.78;;;3.25;100.00
72210;BME280;60113;48.762;12.302;2024-03-02T02:41:11;96195.47;;;3.24;100.00
72210;BME280;60113;48.762;12.302;2024-03-02T02:43:36;96200.66;;;3.24;100.00
72210;BME280;60113;48.762;12.302;2024-03-02T02:46:01;96200.66;;;3.24;100.00
72210;BME280;60113;48.762;12.302;2024-03-02T02:48:27;96205.09;;;3.22;100.00
72210;BME280;60113;48.762;12.302;2024-03-02T02:50:52;96199.91;;;3.22;100.00
72210;BME280;60113;48.762;12.302;2024-03-02T02:53:17;96211.94;;;3.23;100.00
72210;BME280;60113;48.762;12.302;2024-03-02T02:55:43;96205.00;;;3.23;100.00
72210;BME280;60113;48.762;12.302;2024-03-02T02:58:12;96206.66;;;3.24;100.00
72210;BME280;60113;48.762;12.302;2024-03-02T03:00:37;96202.31;;;3.25;100.00
72210;BME280;60113;48.762;12.302;2024-03-02T03:03:03;96203.97;;;3.26;100.00
72210;BME280;60113;48.762;12.302;2024-03-02T03:05:28;96201.38;;;3.26;100.00
72210;BME280;60113;48.762;12.302;2024-03-02T03:07:54;96203.06;;;3.27;100.00
72210;BME280;60113;48.762;12.302;2024-03-02T03:10:19;96200.38;;;3.29;100.00
72210;BME280;60113;48.762;12.302;2024-03-02T03:12:47;96210.75;;;3.29;100.00
72210;BME280;60113;48.762;12.302;2024-03-02T03:15:13;96202.88;;;3.30;100.00
72210;BME280;60113;48.762;12.302;2024-03-02T03:17:39;96198.47;;;3.31;100.00
72210;BME280;60113;48.762;12.302;2024-03-02T03:20:05;96191.53;;;3.31;100.00
72210;BME280;60113;48.762;12.302;2024-03-02T03:22:35;96196.72;;;3.31;100.00
72210;BME280;60113;48.762;12.302;2024-03-02T03:25:00;96187.19;;;3.32;100.00
72210;BME280;60113;48.762;12.302;2024-03-02T03:27:26;96189.78;;;3.32;100.00
72210;BME280;60113;48.762;12.302;2024-03-02T03:29:51;96194.13;;;3.31;100.00
72210;BME280;60113;48.762;12.302;2024-03-02T03:32:17;96194.22;;;3.30;100.00
72210;BME280;60113;48.762;12.302;2024-03-02T03:34:43;96186.53;;;3.28;100.00
72210;BME280;60113;48.762;12.302;2024-03-02T03:37:08;96186.53;;;3.28;100.00
72210;BME280;60113;48.762;12.302;2024-03-02T03:39:35;96184.03;;;3.27;100.00
72210;BME280;60113;48.762;12.302;2024-03-02T03:42:03;96186.72;;;3.25;100.00
72210;BME280;60113;48.762;12.302;2024-03-02T03:44:29;96188.69;;;3.21;100.00
72210;BME280;60113;48.762;12.302;2024-03-02T03:46:54;96189.72;;;3.19;100.00
72210;BME280;60113;48.762;12.302;2024-03-02T03:49:20;96189.91;;;3.16;100.00
72210;BME280;60113;48.762;12.302;2024-03-02T03:51:46;96189.25;;;3.12;100.00
72210;BME280;60113;48.762;12.302;2024-03-02T03:54:11;96183.34;;;3.10;100.00
72210;BME280;60113;48.762;12.302;2024-03-02T03:56:37;96185.19;;;3.08;100.00
72210;BME280;60113;48.762;12.302;2024-03-02T03:59:03;96189.66;;;3.06;100.00
72210;BME280;60113;48.762;12.302;2024-03-02T04:01:30;96185.41;;;3.05;100.00
72210;BME280;60113;48.762;12.302;2024-03-02T04:03:55;96183.75;;;3.04;100.00
72210;BME280;60113;48.762;12.302;2024-03-02T04:06:20;96186.53;;;3.00;100.00
72210;BME280;60113;48.762;12.302;2024-03-02T04:08:46;96205.69;;;2.98;100.00
72210;BME280;60113;48.762;12.302;2024-03-02T04:11:11;96202.38;;;2.96;100.00
72210;BME280;60113;48.762;12.302;2024-03-02T04:13:37;96204.31;;;2.92;100.00
72210;BME280;60113;48.762;12.302;2024-03-02T04:16:02;96203.56;;;2.90;100.00
72210;BME280;60113;48.762;12.302;2024-03-02T04:18:29;96208.06;;;2.88;100.00
72210;BME280;60113;48.762;12.302;2024-03-02T04:20:54;96208.25;;;2.85;100.00
72210;BME280;60113;48.762;12.302;2024-03-02T04:23:19;96212.69;;;2.83;100.00
72210;BME280;60113;48.762;12.302;2024-03-02T04:25:45;96213.63;;;2.82;100.00
72210;BME280;60113;48.762;12.302;2024-03-02T04:28:10;96210.28;;;2.80;100.00
72210;BME280;60113;48.762;12.302;2024-03-02T04:30:37;96210.38;;;2.78;100.00
72210;BME280;60113;48.762;12.302;2024-03-02T04:33:03;96206.13;;;2.77;100.00
72210;BME280;60113;48.762;12.302;2024-03-02T04:35:29;96208.81;;;2.75;100.00
72210;BME280;60113;48.762;12.302;2024-03-02T04:37:54;96203.72;;;2.74;100.00
72210;BME280;60113;48.762;12.302;2024-03-02T04:40:19;96208.91;;;2.74;100.00
72210;BME280;60113;48.762;12.302;2024-03-02T04:42:45;96209.81;;;2.73;100.00
72210;BME280;60113;48.762;12.302;2024-03-02T04:45:10;96210.84;;;2.70;100.00
72210;BME280;60113;48.762;12.302;2024-03-02T04:47:35;96209.25;;;2.68;100.00
72210;BME280;60113;48.762;12.302;2024-03-02T04:50:01;96204.19;;;2.66;100.00
72210;BME280;60113;48.762;12.302;2024-03-02T04:52:27;96213.78;;;2.64;100.00
72210;BME280;60113;48.762;12.302;2024-03-02T04:54:52;96210.47;;;2.62;100.00
72210;BME280;60113;48.762;12.302;2024-03-02T04:57:36;96218.25;;;2.62;100.00
72210;BME280;60113;48.762;12.302;2024-03-02T05:00:02;96218.06;;;2.65;100.00
72210;BME280;60113;48.762;12.302;2024-03-02T05:02:32;96216.13;;;2.69;100.00
72210;BME280;60113;48.762;12.302;2024-03-02T05:04:58;96215.09;;;2.71;100.00
72210;BME280;60113;48.762;12.302;2024-03-02T05:07:23;96215.09;;;2.71;100.00
72210;BME280;60113;48.762;12.302;2024-03-02T05:09:48;96223.72;;;2.72;100.00
72210;BME280;60113;48.762;12.302;2024-03-02T05:12:14;96222.78;;;2.73;100.00
72210;BME280;60113;48.762;12.302;2024-03-02T05:15:14;96228.91;;;2.72;100.00
72210;BME280;60113;48.762;12.302;2024-03-02T05:17:40;96225.47;;;2.71;100.00
72210;BME280;60113;48.762;12.302;2024-03-02T05:20:08;96228.06;;;2.71;100.00
72210;BME280;60113;48.762;12.302;2024-03-02T05:22:35;96228.16;;;2.70;100.00
72210;BME280;60113;48.762;12.302;2024-03-02T05:25:02;96233.34;;;2.70;100.00
72210;BME280;60113;48.762;12.302;2024-03-02T05:27:29;96232.53;;;2.69;100.00
72210;BME280;60113;48.762;12.302;2024-03-02T05:29:54;96237.72;;;2.69;100.00
72210;BME280;60113;48.762;12.302;2024-03-02T05:32:20;96237.72;;;2.69;100.00
72210;BME280;60113;48.762;12.302;2024-03-02T05:34:45;96236.97;;;2.67;100.00
72210;BME280;60113;48.762;12.302;2024-03-02T05:37:11;96252.53;;;2.67;100.00
72210;BME280;60113;48.762;12.302;2024-03-02T05:39:36;96251.81;;;2.65;100.00
72210;BME280;60113;48.762;12.302;2024-03-02T05:42:01;96249.31;;;2.64;100.00
72210;BME280;60113;48.762;12.302;2024-03-02T05:44:28;96252.00;;;2.62;100.00
72210;BME280;60113;48.762;12.302;2024-03-02T05:46:53;96252.88;;;2.61;100.00
72210;BME280;60113;48.762;12.302;2024-03-02T05:49:19;96254.56;;;2.62;100.00
72210;BME280;60113;48.762;12.302;2024-03-02T05:51:44;96260.59;;;2.62;100.00
72210;BME280;60113;48.762;12.302;2024-03-02T05:54:10;96263.19;;;2.62;100.00
72210;BME280;60113;48.762;12.302;2024-03-02T05:56:35;96265.69;;;2.64;100.00
72210;BME280;60113;48.762;12.302;2024-03-02T05:59:01;96265.59;;;2.66;100.00
72210;BME280;60113;48.762;12.302;2024-03-02T06:01:40;96265.50;;;2.67;100.00
72210;BME280;60113;48.762;12.302;2024-03-02T06:04:06;96270.59;;;2.69;100.00
72210;BME280;60113;48.762;12.302;2024-03-02T06:06:32;96267.91;;;2.70;100.00
72210;BME280;60113;48.762;12.302;2024-03-02T06:08:59;96277.25;;;2.73;100.00
72210;BME280;60113;48.762;12.302;2024-03-02T06:11:25;96274.56;;;2.74;100.00
72210;BME280;60113;48.762;12.302;2024-03-02T06:13:50;96276.97;;;2.78;100.00
72210;BME280;60113;48.762;12.302;2024-03-02T06:16:16;96279.47;;;2.79;100.00
72210;BME280;60113;48.762;12.302;2024-03-02T06:18:41;96278.38;;;2.83;100.00
72210;BME280;60113;48.762;12.302;2024-03-02T06:21:06;96278.13;;;2.88;100.00
72210;BME280;60113;48.762;12.302;2024-03-02T06:23:32;96279.50;;;2.94;100.00
72210;BME280;60113;48.762;12.302;2024-03-02T06:25:57;96279.97;;;3.00;100.00
72210;BME280;60113;48.762;12.302;2024-03-02T06:28:23;96275.22;;;3.07;100.00
72210;BME280;60113;48.762;12.302;2024-03-02T06:30:48;96274.84;;;3.13;100.00
72210;BME280;60113;48.762;12.302;2024-03-02T06:33:14;96277.91;;;3.20;100.00
72210;BME280;60113;48.762;12.302;2024-03-02T06:35:40;96274.06;;;3.26;100.00
72210;BME280;60113;48.762;12.302;2024-03-02T06:38:06;96280.75;;;3.30;100.00
72210;BME280;60113;48.762;12.302;2024-03-02T06:40:31;96274.34;;;3.36;100.00
72210;BME280;60113;48.762;12.302;2024-03-02T06:42:57;96280.06;;;3.41;100.00
72210;BME280;60113;48.762;12.302;2024-03-02T06:45:22;96278.88;;;3.47;100.00
72210;BME280;60113;48.762;12.302;2024-03-02T06:47:48;96271.69;;;3.50;100.00
72210;BME280;60113;48.762;12.302;2024-03-02T06:50:14;96279.94;;;3.57;100.00
72210;BME280;60113;48.762;12.302;2024-03-02T06:52:39;96279.66;;;3.62;100.00
72210;BME280;60113;48.762;12.302;2024-03-02T06:55:05;96286.31;;;3.66;100.00
72210;BME280;60113;48.762;12.302;2024-03-02T06:57:31;96282.50;;;3.72;100.00
72210;BME280;60113;48.762;12.302;2024-03-02T06:59:57;96283.13;;;3.75;100.00
72210;BME280;60113;48.762;12.302;2024-03-02T07:02:26;96279.22;;;3.83;100.00
72210;BME280;60113;48.762;12.302;2024-03-02T07:04:55;96289.44;;;3.86;100.00
72210;BME280;60113;48.762;12.302;2024-03-02T07:07:20;96293.47;;;3.90;100.00
72210;BME280;60113;48.762;12.302;2024-03-02T07:09:46;96292.34;;;3.94;100.00
72210;BME280;60113;48.762;12.302;2024-03-02T07:12:12;96292.03;;;3.99;100.00
72210;BME280;60113;48.762;12.302;2024-03-02T07:14:37;96294.44;;;4.02;100.00
72210;BME280;60113;48.762;12.302;2024-03-02T07:17:21;96305.69;;;4.03;100.00
72210;BME280;60113;48.762;12.302;2024-03-02T07:19:47;96307.53;;;4.00;100.00
72210;BME280;60113;48.762;12.302;2024-03-02T07:25:03;96308.69;;;3.96;100.00
72210;BME280;60113;48.762;12.302;2024-03-02T07:27:30;96305.13;;;3.97;100.00
72210;BME280;60113;48.762;12.302;2024-03-02T07:29:56;96311.94;;;4.00;100.00
72210;BME280;60113;48.762;12.302;2024-03-02T07:32:24;96314.41;;;4.02;100.00
72210;BME280;60113;48.762;12.302;2024-03-02T07:34:49;96322.84;;;4.05;100.00
72210;BME280;60113;48.762;12.302;2024-03-02T07:37:16;96318.50;;;4.06;100.00
72210;BME280;60113;48.762;12.302;2024-03-02T07:39:42;96317.34;;;4.10;100.00
72210;BME280;60113;48.762;12.302;2024-03-02T07:42:08;96327.34;;;4.16;100.00
72210;BME280;60113;48.762;12.302;2024-03-02T07:44:34;96320.81;;;4.23;100.00
72210;BME280;60113;48.762;12.302;2024-03-02T07:46:59;96323.75;;;4.32;100.00
72210;BME280;60113;48.762;12.302;2024-03-02T07:49:25;96318.88;;;4.40;100.00
72210;BME280;60113;48.762;12.302;2024-03-02T07:51:50;96321.78;;;4.48;100.00
72210;BME280;60113;48.762;12.302;2024-03-02T07:54:15;96319.72;;;4.54;100.00
72210;BME280;60113;48.762;12.302;2024-03-02T07:56:41;96320.97;;;4.61;100.00
72210;BME280;60113;48.762;12.302;2024-03-02T07:59:06;96324.84;;;4.68;100.00
72210;BME280;60113;48.762;12.302;2024-03-02T08:01:32;96318.41;;;4.74;100.00
72210;BME280;60113;48.762;12.302;2024-03-02T08:03:59;96319.63;;;4.81;100.00
72210;BME280;60113;48.762;12.302;2024-03-02T08:06:26;96329.53;;;4.89;100.00
72210;BME280;60113;48.762;12.302;2024-03-02T08:08:59;96326.41;;;4.97;100.00
72210;BME280;60113;48.762;12.302;2024-03-02T08:11:26;96335.56;;;5.03;100.00
72210;BME280;60113;48.762;12.302;2024-03-02T08:13:56;96333.59;;;5.06;100.00
72210;BME280;60113;48.762;12.302;2024-03-02T08:16:22;96334.44;;;5.07;100.00
72210;BME280;60113;48.762;12.302;2024-03-02T08:18:49;96338.69;;;5.08;100.00
72210;BME280;60113;48.762;12.302;2024-03-02T08:21:15;96340.34;;;5.09;100.00
72210;BME280;60113;48.762;12.302;2024-03-02T08:23:42;96335.25;;;5.07;100.00
72210;BME280;60113;48.762;12.302;2024-03-02T08:26:08;96340.56;;;5.06;100.00
72210;BME280;60113;48.762;12.302;2024-03-02T08:28:34;96344.97;;;5.05;100.00
72210;BME280;60113;48.762;12.302;2024-03-02T08:31:00;96340.66;;;5.04;100.00
72210;BME280;60113;48.762;12.302;2024-03-02T08:33:25;96349.22;;;5.06;100.00
72210;BME280;60113;48.762;12.302;2024-03-02T08:35:51;96344.97;;;5.05;100.00
72210;BME280;60113;48.762;12.302;2024-03-02T08:38:17;96350.88;;;5.07;100.00
72210;BME280;60113;48.762;12.302;2024-03-02T08:40:42;96356.31;;;5.17;100.00
72210;BME280;60113;48.762;12.302;2024-03-02T08:43:09;96352.84;;;5.30;100.00
72210;BME280;60113;48.762;12.302;2024-03-02T08:45:34;96355.03;;;5.36;100.00
72210;BME280;60113;48.762;12.302;2024-03-02T08:48:00;96358.44;;;5.36;100.00
72210;BME280;60113;48.762;12.302;2024-03-02T08:50:26;96352.63;;;5.33;100.00
72210;BME280;60113;48.762;12.302;2024-03-02T08:52:51;96357.22;;;5.29;100.00
72210;BME280;60113;48.762;12.302;2024-03-02T08:55:17;96354.72;;;5.28;100.00
72210;BME280;60113;48.762;12.302;2024-03-02T08:57:42;96364.22;;;5.29;100.00
72210;BME280;60113;48.762;12.302;2024-03-02T09:00:08;96361.06;;;5.36;100.00
72210;BME280;60113;48.762;12.302;2024-03-02T09:02:36;96357.91;;;5.57;100.00
72210;BME280;60113;48.762;12.302;2024-03-02T09:05:02;96371.38;;;5.88;100.00
72210;BME280;60113;48.762;12.302;2024-03-02T09:07:27;96369.22;;;6.20;100.00
72210;BME280;60113;48.762;12.302;2024-03-02T09:09:53;96362.91;;;6.47;100.00
72210;BME280;60113;48.762;12.302;2024-03-02T09:12:19;96361.53;;;6.66;100.00
72210;BME280;60113;48.762;12.302;2024-03-02T09:14:45;96354.34;;;6.69;100.00
72210;BME280;60113;48.762;12.302;2024-03-02T09:17:12;96357.78;;;6.81;100.00
72210;BME280;60113;48.762;12.302;2024-03-02T09:19:38;96363.50;;;6.86;100.00
72210;BME280;60113;48.762;12.302;2024-03-02T09:22:04;96361.38;;;6.92;100.00
72210;BME280;60113;48.762;12.302;2024-03-02T09:24:31;96359.94;;;6.87;100.00
72210;BME280;60113;48.762;12.302;2024-03-02T09:26:59;96361.47;;;6.79;100.00
72210;BME280;60113;48.762;12.302;2024-03-02T09:29:25;96356.09;;;6.69;100.00
72210;BME280;60113;48.762;12.302;2024-03-02T09:31:50;96358.41;;;6.49;100.00
72210;BME280;60113;48.762;12.302;2024-03-02T09:34:16;96363.69;;;6.36;100.00
72210;BME280;60113;48.762;12.302;2024-03-02T09:36:42;96350.13;;;6.19;100.00
72210;BME280;60113;48.762;12.302;2024-03-02T09:39:08;96349.81;;;6.11;100.00
72210;BME280;60113;48.762;12.302;2024-03-02T09:41:36;96349.53;;;6.03;100.00
72210;BME280;60113;48.762;12.302;2024-03-02T09:44:02;96353.81;;;6.04;100.00
72210;BME280;60113;48.762;12.302;2024-03-02T09:46:28;96350.28;;;6.05;100.00
72210;BME280;60113;48.762;12.302;2024-03-02T09:48:53;96343.28;;;6.05;100.00
72210;BME280;60113;48.762;12.302;2024-03-02T09:51:19;96338.59;;;6.10;100.00
72210;BME280;60113;48.762;12.302;2024-03-02T09:53:45;96342.50;;;6.16;100.00
72210;BME280;60113;48.762;12.302;2024-03-02T09:56:12;96343.13;;;6.20;100.00
72210;BME280;60113;48.762;12.302;2024-03-02T09:58:38;96342.78;;;6.24;100.00
72210;BME280;60113;48.762;12.302;2024-03-02T10:01:06;96336.78;;;6.35;100.00
72210;BME280;60113;48.762;12.302;2024-03-02T10:03:33;96334.59;;;6.54;100.00
72210;BME280;60113;48.762;12.302;2024-03-02T10:06:27;96335.22;;;6.69;100.00
72210;BME280;60113;48.762;12.302;2024-03-02T10:08:54;96335.03;;;6.83;100.00
72210;BME280;60113;48.762;12.302;2024-03-02T10:11:26;96339.53;;;7.04;100.00
72210;BME280;60113;48.762;12.302;2024-03-02T10:14:13;96339.94;;;7.22;100.00
72210;BME280;60113;48.762;12.302;2024-03-02T10:16:40;96338.13;;;7.46;100.00
72210;BME280;60113;48.762;12.302;2024-03-02T10:19:20;96324.94;;;7.59;100.00
72210;BME280;60113;48.762;12.302;2024-03-02T10:21:53;96328.47;;;7.69;100.00
72210;BME280;60113;48.762;12.302;2024-03-02T10:24:19;96320.19;;;7.64;100.00
72210;BME280;60113;48.762;12.302;2024-03-02T10:26:45;96327.19;;;7.63;100.00
72210;BME280;60113;48.762;12.302;2024-03-02T10:29:11;96322.91;;;7.62;100.00
72210;BME280;60113;48.762;12.302;2024-03-02T10:31:41;96321.09;;;7.63;100.00
72210;BME280;60113;48.762;12.302;2024-03-02T10:34:07;96316.84;;;7.62;100.00
72210;BME280;60113;48.762;12.302;2024-03-02T10:36:34;96322.91;;;7.62;100.00
72210;BME280;60113;48.762;12.302;2024-03-02T10:39:06;96309.34;;;7.57;100.00
72210;BME280;60113;48.762;12.302;2024-03-02T10:41:33;96309.25;;;7.47;100.00
72210;BME280;60113;48.762;12.302;2024-03-02T10:44:02;96314.63;;;7.34;100.00
72210;BME280;60113;48.762;12.302;2024-03-02T10:46:29;96311.75;;;7.26;100.00
72210;BME280;60113;48.762;12.302;2024-03-02T10:48:56;96314.16;;;7.18;100.00
72210;BME280;60113;48.762;12.302;2024-03-02T10:51:27;96311.53;;;7.06;100.00
72210;BME280;60113;48.762;12.302;2024-03-02T10:53:57;96306.41;;;7.05;100.00
72210;BME280;60113;48.762;12.302;2024-03-02T10:56:34;96306.78;;;7.11;100.00
72210;BME280;60113;48.762;12.302;2024-03-02T11:01:55;96298.81;;;7.36;100.00
72210;BME280;60113;48.762;12.302;2024-03-02T11:04:21;96293.31;;;7.50;100.00
72210;BME280;60113;48.762;12.302;2024-03-02T11:06:50;96290.94;;;7.59;100.00
72210;BME280;60113;48.762;12.302;2024-03-02T11:09:19;96285.81;;;7.69;100.00
72210;BME280;60113;48.762;12.302;2024-03-02T11:11:50;96275.31;;;7.80;100.00
72210;BME280;60113;48.762;12.302;2024-03-02T11:14:23;96269.09;;;7.93;100.00
72210;BME280;60113;48.762;12.302;2024-03-02T11:16:50;96268.81;;;8.07;100.00
72210;BME280;60113;48.762;12.302;2024-03-02T11:19:17;96273.59;;;8.23;100.00
72210;BME280;60113;48.762;12.302;2024-03-02T11:21:43;96259.31;;;8.28;100.00
72210;BME280;60113;48.762;12.302;2024-03-02T11:26:53;96259.56;;;8.46;100.00
72210;BME280;60113;48.762;12.302;2024-03-02T11:32:04;96258.34;;;8.71;100.00
72210;BME280;60113;48.762;12.302;2024-03-02T11:34:34;96248.28;;;8.67;100.00
72210;BME280;60113;48.762;12.302;2024-03-02T11:37:03;96249.75;;;8.59;100.00
72210;BME280;60113;48.762;12.302;2024-03-02T11:39:30;96245.47;;;8.37;100.00
72210;BME280;60113;48.762;12.302;2024-03-02T11:41:57;96245.59;;;8.35;100.00
72210;BME280;60113;48.762;12.302;2024-03-02T11:44:25;96237.63;;;8.37;100.00
72210;BME280;60113;48.762;12.302;2024-03-02T11:46:57;96241.50;;;8.43;100.00
72210;BME280;60113;48.762;12.302;2024-03-02T11:49:43;96238.75;;;8.44;100.00
72210;BME280;60113;48.762;12.302;2024-03-02T11:52:10;96237.25;;;8.63;100.00
72210;BME280;60113;48.762;12.302;2024-03-02T11:54:37;96232.03;;;8.73;100.00
72210;BME280;60113;48.762;12.302;2024-03-02T11:57:12;96229.41;;;8.73;100.00
72210;BME280;60113;48.762;12.302;2024-03-02T11:59:37;96219.91;;;8.72;100.00
72210;BME280;60113;48.762;12.302;2024-03-02T12:02:03;96225.59;;;8.77;100.00
72210;BME280;60113;48.762;12.302;2024-03-02T12:04:29;96217.16;;;8.73;100.00
72210;BME280;60113;48.762;12.302;2024-03-02T12:07:01;96216.59;;;8.70;100.00
72210;BME280;60113;48.762;12.302;2024-03-02T12:09:27;96210.13;;;8.74;100.00
72210;BME280;60113;48.762;12.302;2024-03-02T12:12:09;96199.28;;;8.79;100.00
72210;BME280;60113;48.762;12.302;2024-03-02T12:14:38;96206.47;;;8.86;100.00
72210;BME280;60113;48.762;12.302;2024-03-02T12:17:04;96203.84;;;8.86;100.00
72210;BME280;60113;48.762;12.302;2024-03-02T12:19:31;96201.09;;;8.88;100.00
72210;BME280;60113;48.762;12.302;2024-03-02T12:21:57;96199.16;;;8.90;100.00
72210;BME280;60113;48.762;12.302;2024-03-02T12:24:23;96187.47;;;8.94;100.00
72210;BME280;60113;48.762;12.302;2024-03-02T12:26:50;96189.06;;;8.85;100.00
72210;BME280;60113;48.762;12.302;2024-03-02T12:29:17;96189.22;;;8.84;100.00
72210;BME280;60113;48.762;12.302;2024-03-02T12:31:43;96184.47;;;8.68;100.00
72210;BME280;60113;48.762;12.302;2024-03-02T12:34:14;96188.88;;;8.67;100.00
72210;BME280;60113;48.762;12.302;2024-03-02T12:36:40;96181.16;;;8.66;100.00
72210;BME280;60113;48.762;12.302;2024-03-02T12:39:08;96173.28;;;8.66;100.00
72210;BME280;60113;48.762;12.302;2024-03-02T12:41:36;96174.53;;;8.71;100.00
72210;BME280;60113;48.762;12.302;2024-03-02T12:44:03;96173.75;;;8.81;100.00
72210;BME280;60113;48.762;12.302;2024-03-02T12:46:28;96173.84;;;9.00;100.00
72210;BME280;60113;48.762;12.302;2024-03-02T12:48:54;96165.47;;;9.36;100.00
72210;BME280;60113;48.762;12.302;2024-03-02T12:51:19;96158.06;;;9.71;100.00
72210;BME280;60113;48.762;12.302;2024-03-02T12:53:45;96160.53;;;10.03;100.00
72210;BME280;60113;48.762;12.302;2024-03-02T12:56:10;96153.81;;;10.28;100.00
72210;BME280;60113;48.762;12.302;2024-03-02T12:58:40;96154.09;;;10.35;98.50
72210;BME280;60113;48.762;12.302;2024-03-02T13:01:07;96150.50;;;10.36;100.00